createdAt,value
2022-10-30T00:01:20.700Z,1.63
2022-10-30T00:03:48.904Z,1.40
2022-10-30T00:08:50.145Z,4.33
2022-10-30T00:11:18.349Z,3.63
2022-10-30T00:13:47.924Z,1.20
2022-10-30T00:16:16.102Z,1.08
2022-10-30T00:18:44.249Z,1.23
2022-10-30T00:21:15.080Z,0.88
2022-10-30T00:23:47.890Z,2.45
2022-10-30T00:26:19.218Z,4.90
2022-10-30T00:28:52.582Z,4.35
2022-10-30T00:31:22.568Z,1.20
2022-10-30T00:33:52.039Z,1.27
2022-10-30T00:36:20.302Z,6.30
2022-10-30T00:38:48.681Z,0.63
2022-10-30T00:41:18.196Z,1.05
2022-10-30T00:43:47.057Z,1.75
2022-10-30T00:46:25.266Z,2.58
2022-10-30T00:48:59.203Z,2.17
2022-10-30T00:51:28.873Z,1.45
2022-10-30T00:54:00.451Z,0.93
2022-10-30T00:56:28.917Z,2.03
2022-10-30T00:59:02.551Z,1.40
2022-10-30T01:01:37.872Z,1.90
2022-10-30T01:04:07.921Z,0.60
2022-10-30T01:06:40.979Z,0.50
2022-10-30T01:09:09.185Z,1.38
2022-10-30T01:11:37.550Z,1.70
2022-10-30T01:14:09.639Z,0.70
2022-10-30T01:16:58.716Z,0.50
2022-10-30T01:19:37.401Z,1.67
2022-10-30T01:22:27.595Z,0.70
2022-10-30T01:25:07.878Z,0.45
2022-10-30T01:27:43.771Z,1.92
2022-10-30T01:30:27.278Z,2.97
2022-10-30T01:33:14.071Z,1.38
2022-10-30T01:35:50.012Z,0.60
2022-10-30T01:38:24.808Z,3.47
2022-10-30T01:40:53.021Z,1.40
2022-10-30T01:43:21.753Z,1.60
2022-10-30T01:46:13.379Z,1.10
2022-10-30T01:49:06.608Z,1.10
2022-10-30T01:51:52.668Z,0.50
2022-10-30T01:54:39.859Z,0.70
2022-10-30T01:57:17.177Z,1.05
2022-10-30T01:59:51.203Z,1.63
2022-10-30T02:02:20.028Z,1.88
2022-10-30T02:04:49.736Z,0.60
2022-10-30T02:07:18.056Z,0.85
2022-10-30T02:09:46.401Z,0.50
2022-10-30T02:12:14.754Z,2.10
2022-10-30T02:14:47.455Z,1.10
2022-10-30T02:17:15.719Z,2.05
2022-10-30T02:19:43.925Z,1.00
2022-10-30T02:22:13.784Z,0.68
2022-10-30T02:24:42.016Z,0.73
2022-10-30T02:27:10.180Z,1.25
2022-10-30T02:29:38.367Z,0.60
2022-10-30T02:32:06.558Z,2.45
2022-10-30T02:34:34.745Z,1.30
2022-10-30T02:37:02.903Z,1.00
2022-10-30T02:39:32.425Z,0.70
2022-10-30T02:42:01.991Z,0.73
2022-10-30T02:44:30.198Z,2.97
2022-10-30T02:46:58.379Z,0.80
2022-10-30T02:49:26.727Z,0.60
2022-10-30T02:51:54.903Z,0.70
2022-10-30T02:54:23.047Z,0.70
2022-10-30T02:56:52.660Z,0.90
2022-10-30T02:59:21.620Z,0.60
2022-10-30T03:01:49.875Z,0.95
2022-10-30T03:04:18.095Z,0.63
2022-10-30T03:06:46.294Z,0.63
2022-10-30T03:09:14.566Z,0.60
2022-10-30T03:11:44.419Z,0.70
2022-10-30T03:14:14.070Z,0.70
2022-10-30T03:16:42.239Z,0.73
2022-10-30T03:19:10.674Z,0.50
2022-10-30T03:21:38.855Z,0.70
2022-10-30T03:24:07.609Z,0.65
2022-10-30T03:26:35.769Z,0.60
2022-10-30T03:29:04.150Z,0.60
2022-10-30T03:31:34.000Z,0.63
2022-10-30T03:34:02.145Z,0.73
2022-10-30T03:36:30.311Z,0.50
2022-10-30T03:38:58.453Z,0.60
2022-10-30T03:41:26.676Z,0.57
2022-10-30T03:43:55.355Z,0.65
2022-10-30T03:46:23.505Z,0.52
2022-10-30T03:48:53.056Z,0.70
2022-10-30T03:51:21.199Z,0.70
2022-10-30T03:53:49.407Z,0.70
2022-10-30T03:56:17.546Z,0.87
2022-10-30T03:58:45.717Z,0.70
2022-10-30T04:01:13.973Z,0.70
2022-10-30T04:03:42.206Z,0.73
2022-10-30T04:06:11.931Z,0.57
2022-10-30T04:08:40.103Z,0.77
2022-10-30T04:11:10.392Z,0.63
2022-10-30T04:13:38.682Z,1.60
2022-10-30T04:16:07.826Z,0.63
2022-10-30T04:18:36.007Z,0.70
2022-10-30T04:21:04.553Z,0.90
2022-10-30T04:23:34.102Z,0.57
2022-10-30T04:26:02.738Z,0.60
2022-10-30T04:28:30.915Z,0.50
2022-10-30T04:30:59.075Z,0.80
2022-10-30T04:33:27.283Z,0.97
2022-10-30T04:35:55.536Z,0.68
2022-10-30T04:38:23.682Z,0.80
2022-10-30T04:40:53.186Z,0.70
2022-10-30T04:43:21.401Z,0.80
2022-10-30T04:45:49.561Z,0.70
2022-10-30T04:48:19.750Z,0.80
2022-10-30T04:50:47.977Z,0.88
2022-10-30T04:53:18.832Z,0.95
2022-10-30T04:55:47.010Z,0.80
2022-10-30T04:58:16.555Z,0.70
2022-10-30T05:00:44.734Z,0.60
2022-10-30T05:03:20.033Z,0.70
2022-10-30T05:05:49.195Z,0.60
2022-10-30T05:08:17.932Z,0.80
2022-10-30T05:10:46.054Z,0.80
2022-10-30T05:13:14.218Z,0.70
2022-10-30T05:15:43.771Z,0.80
2022-10-30T05:18:12.324Z,0.73
2022-10-30T05:20:40.541Z,0.70
2022-10-30T05:23:08.725Z,0.90
2022-10-30T05:25:36.904Z,0.60
2022-10-30T05:28:07.604Z,0.73
2022-10-30T05:30:36.876Z,0.73
2022-10-30T05:33:08.483Z,0.70
2022-10-30T05:35:37.156Z,0.70
2022-10-30T05:38:07.990Z,0.70
2022-10-30T05:40:36.600Z,0.75
2022-10-30T05:43:05.571Z,0.70
2022-10-30T05:45:33.888Z,0.80
2022-10-30T05:48:04.581Z,0.77
2022-10-30T05:50:34.743Z,0.80
2022-10-30T05:53:06.080Z,0.68
2022-10-30T05:55:36.614Z,0.80
2022-10-30T05:58:07.394Z,0.80
2022-10-30T06:00:37.447Z,0.70
2022-10-30T06:03:08.484Z,0.80
2022-10-30T06:05:38.851Z,0.80
2022-10-30T06:08:08.715Z,0.80
2022-10-30T06:10:37.785Z,0.70
2022-10-30T06:13:08.234Z,0.80
2022-10-30T06:15:36.433Z,0.70
2022-10-30T06:18:04.876Z,0.88
2022-10-30T06:20:33.399Z,0.70
2022-10-30T06:23:06.117Z,0.60
2022-10-30T06:25:41.154Z,0.95
2022-10-30T06:28:11.351Z,0.80
2022-10-30T06:30:39.664Z,0.70
2022-10-30T06:33:08.949Z,0.77
2022-10-30T06:35:37.170Z,0.80
2022-10-30T06:38:08.768Z,1.00
2022-10-30T06:40:36.987Z,0.80
2022-10-30T06:43:05.123Z,1.02
2022-10-30T06:45:33.304Z,0.90
2022-10-30T06:48:02.651Z,1.05
2022-10-30T06:50:30.975Z,0.95
2022-10-30T06:52:59.155Z,0.95
2022-10-30T06:55:28.679Z,0.70
2022-10-30T06:57:58.092Z,0.98
2022-10-30T07:00:26.678Z,0.80
2022-10-30T07:03:00.198Z,0.95
2022-10-30T07:05:28.949Z,0.75
2022-10-30T07:08:00.135Z,0.90
2022-10-30T07:10:29.696Z,0.90
2022-10-30T07:12:58.957Z,0.82
2022-10-30T07:15:28.284Z,1.08
2022-10-30T07:17:58.596Z,0.88
2022-10-30T07:20:28.962Z,0.80
2022-10-30T07:22:57.229Z,0.83
2022-10-30T07:25:25.914Z,0.88
2022-10-30T07:27:57.297Z,0.90
2022-10-30T07:30:28.092Z,0.90
2022-10-30T07:33:02.149Z,0.90
2022-10-30T07:35:31.472Z,0.90
2022-10-30T07:38:04.148Z,1.17
2022-10-30T07:40:32.831Z,0.80
2022-10-30T07:43:04.766Z,0.90
2022-10-30T07:45:33.849Z,0.80
2022-10-30T07:48:02.378Z,1.00
2022-10-30T07:50:31.175Z,0.90
2022-10-30T07:52:59.440Z,0.90
2022-10-30T07:55:27.636Z,1.10
2022-10-30T07:57:56.103Z,1.30
2022-10-30T08:00:25.854Z,1.10
2022-10-30T08:02:58.652Z,0.95
2022-10-30T08:05:29.921Z,1.00
2022-10-30T08:07:58.796Z,1.63
2022-10-30T08:10:27.424Z,3.90
2022-10-30T08:12:55.750Z,1.60
2022-10-30T08:15:25.588Z,1.00
2022-10-30T08:17:54.070Z,4.53
2022-10-30T08:20:25.132Z,3.80
2022-10-30T08:22:57.431Z,1.23
2022-10-30T08:25:28.811Z,1.42
2022-10-30T08:27:59.497Z,3.00
2022-10-30T08:30:32.344Z,5.32
2022-10-30T08:33:01.819Z,1.90
2022-10-30T08:35:30.656Z,3.92
2022-10-30T08:38:00.045Z,4.93
2022-10-30T08:40:28.979Z,3.42
2022-10-30T08:42:58.861Z,1.83
2022-10-30T08:45:31.191Z,2.90
2022-10-30T08:48:01.553Z,3.17
2022-10-30T08:50:30.348Z,0.88
2022-10-30T08:53:03.310Z,5.82
2022-10-30T08:55:32.673Z,2.03
2022-10-30T08:58:01.387Z,4.13
2022-10-30T09:00:31.748Z,2.08
2022-10-30T09:03:00.205Z,5.63
2022-10-30T09:05:29.557Z,1.40
2022-10-30T09:08:01.284Z,1.40
2022-10-30T09:10:31.879Z,4.65
2022-10-30T09:13:02.393Z,4.95
2022-10-30T09:15:32.016Z,3.05
2022-10-30T09:18:03.143Z,3.72
2022-10-30T09:20:32.518Z,5.35
2022-10-30T09:23:01.222Z,4.43
2022-10-30T09:25:29.669Z,6.10
2022-10-30T09:27:57.840Z,2.45
2022-10-30T09:30:26.330Z,2.10
2022-10-30T09:33:00.356Z,3.55
2022-10-30T09:35:29.060Z,4.57
2022-10-30T09:37:58.100Z,4.13
2022-10-30T09:40:45.732Z,5.53
2022-10-30T09:43:32.751Z,5.30
2022-10-30T09:46:21.465Z,4.82
2022-10-30T09:49:35.599Z,4.45
2022-10-30T09:52:21.487Z,2.40
2022-10-30T09:55:26.508Z,3.50
2022-10-30T09:58:06.313Z,4.90
2022-10-30T10:00:39.501Z,2.72
2022-10-30T10:03:27.135Z,2.65
2022-10-30T10:06:00.504Z,7.45
2022-10-30T10:08:37.863Z,4.57
2022-10-30T10:11:14.621Z,5.20
2022-10-30T10:13:51.562Z,5.00
2022-10-30T10:16:21.852Z,3.45
2022-10-30T10:18:58.327Z,2.00
2022-10-30T10:21:29.887Z,4.82
2022-10-30T10:24:01.781Z,3.08
2022-10-30T10:26:36.899Z,4.07
2022-10-30T10:29:55.115Z,5.70
2022-10-30T10:33:03.610Z,6.43
2022-10-30T10:35:52.409Z,3.03
2022-10-30T10:38:37.208Z,5.00
2022-10-30T10:41:19.123Z,3.00
2022-10-30T10:44:16.482Z,2.20
2022-10-30T10:47:07.636Z,4.78
2022-10-30T10:49:57.217Z,4.07
2022-10-30T10:52:32.791Z,2.95
2022-10-30T10:55:06.788Z,3.05
2022-10-30T10:57:38.743Z,4.82
2022-10-30T11:00:14.285Z,5.72
2022-10-30T11:02:48.238Z,3.75
2022-10-30T11:05:27.093Z,4.38
2022-10-30T11:08:02.572Z,2.13
2022-10-30T11:10:32.081Z,5.35
2022-10-30T11:13:01.880Z,4.78
2022-10-30T11:15:43.826Z,6.18
2022-10-30T11:18:12.437Z,4.97
2022-10-30T11:20:47.767Z,3.05
2022-10-30T11:23:41.994Z,4.90
2022-10-30T11:26:32.080Z,1.65
2022-10-30T11:29:14.032Z,2.38
2022-10-30T11:31:44.654Z,3.78
2022-10-30T11:34:37.152Z,4.00
2022-10-30T11:37:06.242Z,4.30
2022-10-30T11:39:36.364Z,4.55
2022-10-30T11:42:14.870Z,4.57
2022-10-30T11:44:46.016Z,3.75
2022-10-30T11:47:16.561Z,2.42
2022-10-30T11:49:48.902Z,2.97
2022-10-30T11:52:20.297Z,2.83
2022-10-30T11:54:52.735Z,2.35
2022-10-30T11:57:29.028Z,4.28
2022-10-30T12:00:04.620Z,6.65
2022-10-30T12:02:43.685Z,4.83
2022-10-30T12:05:41.462Z,2.93
2022-10-30T12:08:22.789Z,5.70
2022-10-30T12:11:03.552Z,2.20
2022-10-30T12:13:40.093Z,2.23
2022-10-30T12:16:17.300Z,5.03
2022-10-30T12:19:03.267Z,6.30
2022-10-30T12:21:39.919Z,3.67
2022-10-30T12:24:18.338Z,5.25
2022-10-30T12:26:50.965Z,1.67
2022-10-30T12:29:36.421Z,7.13
2022-10-30T12:32:18.495Z,2.55
2022-10-30T12:34:52.821Z,4.80
2022-10-30T12:37:29.602Z,4.53
2022-10-30T12:40:02.684Z,3.78
2022-10-30T12:42:36.881Z,4.10
2022-10-30T12:45:16.092Z,3.67
2022-10-30T12:47:51.775Z,1.30
2022-10-30T12:50:25.225Z,3.17
2022-10-30T12:53:00.941Z,3.72
2022-10-30T12:55:37.439Z,5.10
2022-10-30T12:58:28.851Z,4.95
2022-10-30T13:01:02.792Z,4.30
2022-10-30T13:03:37.404Z,1.73
2022-10-30T13:06:15.331Z,2.58
2022-10-30T13:08:55.405Z,1.38
2022-10-30T13:11:43.270Z,3.15
2022-10-30T13:14:18.377Z,5.10
2022-10-30T13:16:47.915Z,5.63
2022-10-30T13:19:16.082Z,3.40
2022-10-30T13:21:54.729Z,5.68
2022-10-30T13:24:34.463Z,2.10
2022-10-30T13:27:11.317Z,1.80
2022-10-30T13:29:46.636Z,0.70
2022-10-30T13:32:40.226Z,1.17
2022-10-30T13:35:24.950Z,2.63
2022-10-30T13:38:02.720Z,8.43
2022-10-30T13:40:36.925Z,2.90
2022-10-30T13:43:20.851Z,4.10
2022-10-30T13:46:15.354Z,8.02
2022-10-30T13:49:23.798Z,2.17
2022-10-30T13:52:00.085Z,0.52
2022-10-30T13:54:34.148Z,3.88
2022-10-30T13:57:13.950Z,1.30
2022-10-30T14:00:04.889Z,3.17
2022-10-30T14:02:52.451Z,4.05
2022-10-30T14:05:32.379Z,6.20
2022-10-30T14:08:12.985Z,7.18
2022-10-30T14:10:47.019Z,4.70
2022-10-30T14:13:26.738Z,6.35
2022-10-30T14:15:58.454Z,3.13
2022-10-30T14:18:31.086Z,3.47
2022-10-30T14:21:21.653Z,5.80
2022-10-30T14:23:49.804Z,5.32
2022-10-30T14:26:23.013Z,6.90
2022-10-30T14:28:56.092Z,4.72
2022-10-30T14:31:36.160Z,2.65
2022-10-30T14:34:04.600Z,7.03
2022-10-30T14:37:00.995Z,3.30
2022-10-30T14:39:30.985Z,4.00
2022-10-30T14:42:13.662Z,3.40
2022-10-30T14:45:10.889Z,5.00
2022-10-30T14:47:56.492Z,3.67
2022-10-30T14:50:39.247Z,3.63
2022-10-30T14:53:30.286Z,3.97
2022-10-30T14:56:08.257Z,3.45
2022-10-30T14:58:39.858Z,2.97
2022-10-30T15:01:32.048Z,3.60
2022-10-30T15:04:15.978Z,4.90
2022-10-30T15:07:07.493Z,4.78
2022-10-30T15:09:58.900Z,3.87
2022-10-30T15:12:58.280Z,4.10
2022-10-30T15:15:30.053Z,5.10
2022-10-30T15:18:02.456Z,6.03
2022-10-30T15:20:34.720Z,4.87
2022-10-30T15:23:07.063Z,4.22
2022-10-30T15:25:45.181Z,10.15
2022-10-30T15:28:19.821Z,3.22
2022-10-30T15:31:04.971Z,2.65
2022-10-30T15:33:37.985Z,4.88
2022-10-30T15:36:16.925Z,6.38
2022-10-30T15:38:45.130Z,6.47
2022-10-30T15:41:15.112Z,4.82
2022-10-30T15:43:45.233Z,6.10
2022-10-30T15:46:15.851Z,3.67
2022-10-30T15:48:48.453Z,4.10
2022-10-30T15:51:19.916Z,5.20
2022-10-30T15:53:52.224Z,4.38
2022-10-30T15:56:28.828Z,2.60
2022-10-30T15:59:00.736Z,3.60
2022-10-30T16:01:33.035Z,5.22
2022-10-30T16:04:02.062Z,3.50
2022-10-30T16:06:32.769Z,3.30
2022-10-30T16:09:04.199Z,4.63
2022-10-30T16:11:34.330Z,4.65
2022-10-30T16:14:09.572Z,4.35
2022-10-30T16:16:37.805Z,5.80
2022-10-30T16:19:06.852Z,4.90
2022-10-30T16:21:35.641Z,3.75
2022-10-30T16:24:05.442Z,3.83
2022-10-30T16:26:40.326Z,5.40
2022-10-30T16:29:24.201Z,3.50
2022-10-30T16:31:53.649Z,4.90
2022-10-30T16:34:27.127Z,2.92
2022-10-30T16:36:57.265Z,6.78
2022-10-30T16:39:26.594Z,3.92
2022-10-30T16:41:58.873Z,5.00
2022-10-30T16:44:31.451Z,6.20
2022-10-30T16:47:05.336Z,5.53
2022-10-30T16:49:35.859Z,3.90
2022-10-30T16:52:07.183Z,4.80
2022-10-30T16:54:40.678Z,5.97
2022-10-30T16:57:17.429Z,3.00
2022-10-30T16:59:49.421Z,6.17
2022-10-30T17:02:21.122Z,4.70
2022-10-30T17:04:57.027Z,5.10
2022-10-30T17:07:28.001Z,3.67
2022-10-30T17:09:58.596Z,3.67
2022-10-30T17:12:30.346Z,4.57
2022-10-30T17:15:13.105Z,5.85
2022-10-30T17:17:43.131Z,4.20
2022-10-30T17:20:30.899Z,4.23
2022-10-30T17:23:15.335Z,3.00
2022-10-30T17:25:43.891Z,4.07
2022-10-30T17:28:28.186Z,4.25
2022-10-30T17:30:56.857Z,6.35
2022-10-30T17:33:37.542Z,4.75
2022-10-30T17:36:07.408Z,5.20
2022-10-30T17:38:35.544Z,5.47
2022-10-30T17:41:04.229Z,6.15
2022-10-30T17:43:50.118Z,4.40
2022-10-30T17:46:20.388Z,4.17
2022-10-30T17:48:49.448Z,4.97
2022-10-30T17:51:19.380Z,4.72
2022-10-30T17:53:49.385Z,4.13
2022-10-30T17:56:21.838Z,4.50
2022-10-30T17:58:51.471Z,6.35
2022-10-30T18:01:23.739Z,4.70
2022-10-30T18:03:54.973Z,6.22
2022-10-30T18:06:25.996Z,5.70
2022-10-30T18:08:54.992Z,5.13
2022-10-30T18:11:27.101Z,5.15
2022-10-30T18:13:58.449Z,5.15
2022-10-30T18:16:27.590Z,6.05
2022-10-30T18:18:55.778Z,4.25
2022-10-30T18:21:27.467Z,4.60
2022-10-30T18:23:56.550Z,2.55
2022-10-30T18:26:27.358Z,2.30
2022-10-30T18:28:56.910Z,2.33
2022-10-30T18:31:25.726Z,2.60
2022-10-30T18:33:53.895Z,2.10
2022-10-30T18:36:24.310Z,2.10
2022-10-30T18:38:53.808Z,1.88
2022-10-30T18:41:25.962Z,1.80
2022-10-30T18:43:54.216Z,1.67
2022-10-30T18:46:26.539Z,2.13
2022-10-30T18:48:54.727Z,1.45
2022-10-30T18:51:25.700Z,1.88
2022-10-30T18:53:54.853Z,3.55
2022-10-30T18:56:26.611Z,1.85
2022-10-30T18:59:00.501Z,1.63
2022-10-30T19:01:32.973Z,1.60
2022-10-30T19:04:03.588Z,2.65
2022-10-30T19:06:34.103Z,1.70
2022-10-30T19:09:02.652Z,2.50
2022-10-30T19:11:31.936Z,1.30
2022-10-30T19:14:00.742Z,1.33
2022-10-30T19:16:29.299Z,1.20
2022-10-30T19:18:58.813Z,1.20
2022-10-30T19:21:28.014Z,1.10
2022-10-30T19:23:57.047Z,1.50
2022-10-30T19:26:25.288Z,1.38
2022-10-30T19:28:53.509Z,1.23
2022-10-30T19:31:21.996Z,1.20
2022-10-30T19:33:53.129Z,1.10
2022-10-30T19:36:33.620Z,1.08
2022-10-30T19:39:08.554Z,1.33
2022-10-30T19:41:38.672Z,0.93
2022-10-30T19:44:07.261Z,0.90
2022-10-30T19:46:35.657Z,1.00
2022-10-30T19:49:17.058Z,1.25
2022-10-30T19:51:46.908Z,0.95
2022-10-30T19:54:15.080Z,1.00
2022-10-30T19:56:44.105Z,1.30
2022-10-30T19:59:15.208Z,0.98
2022-10-30T20:01:44.534Z,1.00
2022-10-30T20:04:13.177Z,1.17
2022-10-30T20:06:41.379Z,1.10
2022-10-30T20:09:12.603Z,1.80
2022-10-30T20:11:40.795Z,1.10
2022-10-30T20:14:08.982Z,1.05
2022-10-30T20:16:37.185Z,0.93
2022-10-30T20:19:27.242Z,1.10
2022-10-30T20:21:55.772Z,0.95
2022-10-30T20:24:25.509Z,1.00
2022-10-30T20:26:58.657Z,1.20
2022-10-30T20:29:26.996Z,1.00
2022-10-30T20:31:55.207Z,1.10
2022-10-30T20:34:23.330Z,1.23
2022-10-30T20:36:51.544Z,1.40
2022-10-30T20:39:19.703Z,1.10
2022-10-30T20:41:49.277Z,1.00
2022-10-30T20:44:17.452Z,1.10
2022-10-30T20:46:46.099Z,1.08
2022-10-30T20:49:17.684Z,1.10
2022-10-30T20:51:47.195Z,0.90
2022-10-30T20:54:15.878Z,1.13
2022-10-30T20:56:44.041Z,1.20
2022-10-30T20:59:13.583Z,1.08
2022-10-30T21:01:41.815Z,1.13
2022-10-30T21:04:10.060Z,1.20
2022-10-30T21:06:38.275Z,1.10
2022-10-30T21:09:06.454Z,1.60
2022-10-30T21:11:34.669Z,1.15
2022-10-30T21:14:02.841Z,1.30
2022-10-30T21:16:32.353Z,1.27
2022-10-30T21:19:00.513Z,1.30
2022-10-30T21:21:28.697Z,1.05
2022-10-30T21:23:57.243Z,1.00
2022-10-30T21:26:25.651Z,1.30
2022-10-30T21:28:53.844Z,1.08
2022-10-30T21:31:22.093Z,1.00
2022-10-30T21:33:51.627Z,1.30
2022-10-30T21:36:21.386Z,1.07
2022-10-30T21:38:49.919Z,1.00
2022-10-30T21:41:20.319Z,1.10
2022-10-30T21:43:51.484Z,1.30
2022-10-30T21:46:19.977Z,1.20
2022-10-30T21:48:48.378Z,1.27
2022-10-30T21:51:20.896Z,1.83
2022-10-30T21:53:49.771Z,1.30
2022-10-30T21:56:21.020Z,1.20
2022-10-30T21:58:50.203Z,1.42
2022-10-30T22:01:21.504Z,1.30
2022-10-30T22:03:49.965Z,1.10
2022-10-30T22:06:22.374Z,1.27
2022-10-30T22:08:53.251Z,1.42
2022-10-30T22:11:23.188Z,3.97
2022-10-30T22:13:55.717Z,1.30
2022-10-30T22:16:25.121Z,1.23
2022-10-30T22:18:53.588Z,1.10
2022-10-30T22:21:23.123Z,1.10
2022-10-30T22:23:51.376Z,1.50
2022-10-30T22:26:22.011Z,1.23
2022-10-30T22:28:54.351Z,1.60
2022-10-30T22:31:24.552Z,1.33
2022-10-30T22:33:53.266Z,2.00
2022-10-30T22:36:25.060Z,1.35
2022-10-30T22:38:57.771Z,1.25
2022-10-30T22:41:28.658Z,1.60
2022-10-30T22:44:00.122Z,1.58
2022-10-30T22:46:30.808Z,1.75
2022-10-30T22:48:59.945Z,1.10
2022-10-30T22:51:32.301Z,1.20
2022-10-30T22:54:03.430Z,1.00
2022-10-30T22:56:34.338Z,1.00
2022-10-30T22:59:05.325Z,1.08
2022-10-30T23:01:36.023Z,1.15
2022-10-30T23:04:07.698Z,2.30
2022-10-30T23:06:37.347Z,1.00
2022-10-30T23:09:08.569Z,1.10
2022-10-30T23:11:37.032Z,1.33
2022-10-30T23:14:05.310Z,1.10
2022-10-30T23:16:33.530Z,1.43
2022-10-30T23:19:02.807Z,1.00
2022-10-30T23:21:32.586Z,0.80
2022-10-30T23:24:05.090Z,1.30
2022-10-30T23:26:35.673Z,0.90
2022-10-30T23:29:05.441Z,0.90
2022-10-30T23:31:36.817Z,1.05
2022-10-30T23:34:08.979Z,1.20
2022-10-30T23:36:37.615Z,0.90
2022-10-30T23:39:09.743Z,1.13
2022-10-30T23:41:38.014Z,0.85
2022-10-30T23:44:08.887Z,1.10
2022-10-30T23:46:37.516Z,0.82
2022-10-30T23:49:06.287Z,0.90
2022-10-30T23:51:34.641Z,0.98
2022-10-30T23:54:03.171Z,0.80
2022-10-30T23:56:32.937Z,0.82
2022-10-30T23:59:01.544Z,1.30
